createdAt,value
2022-11-22T00:00:10.393Z,92.28
2022-11-22T00:12:10.871Z,93.50
2022-11-22T00:24:11.282Z,92.67
2022-11-22T00:36:11.718Z,92.60
2022-11-22T00:48:12.167Z,91.64
2022-11-22T01:00:12.654Z,90.75
2022-11-22T01:12:13.054Z,91.04
2022-11-22T01:24:13.532Z,93.35
2022-11-22T01:36:13.996Z,92.54
2022-11-22T01:48:14.440Z,92.99
2022-11-22T02:00:14.854Z,91.83
2022-11-22T02:12:15.354Z,93.25
2022-11-22T02:24:15.747Z,93.92
2022-11-22T02:36:16.213Z,94.56
2022-11-22T02:48:16.716Z,93.96
2022-11-22T03:00:17.160Z,94.12
2022-11-22T03:12:17.552Z,94.53
2022-11-22T03:24:18.063Z,95.26
2022-11-22T03:36:18.510Z,94.99
2022-11-22T03:48:18.944Z,94.33
2022-11-22T04:00:19.418Z,94.46
2022-11-22T04:12:19.944Z,94.40
2022-11-22T04:24:20.312Z,94.36
2022-11-22T04:36:20.738Z,93.95
2022-11-22T04:48:21.174Z,95.14
2022-11-22T05:00:21.674Z,95.08
2022-11-22T05:12:22.092Z,94.37
2022-11-22T05:24:22.567Z,92.49
2022-11-22T05:36:23.015Z,92.50
2022-11-22T05:48:23.524Z,93.04
2022-11-22T06:00:23.941Z,93.77
2022-11-22T06:12:24.342Z,93.95
2022-11-22T06:24:24.826Z,93.90
2022-11-22T06:36:25.313Z,93.60
2022-11-22T06:48:25.711Z,92.83
2022-11-22T07:00:26.152Z,93.24
2022-11-22T07:12:26.634Z,93.07
2022-11-22T07:24:27.081Z,93.82
2022-11-22T07:36:27.543Z,93.25
2022-11-22T07:48:27.969Z,92.27
2022-11-22T08:00:28.423Z,92.60
2022-11-22T08:12:28.912Z,92.59
2022-11-22T08:24:29.330Z,91.47
2022-11-22T08:36:29.779Z,92.31
2022-11-22T08:48:30.269Z,89.92
2022-11-22T09:00:33.582Z,88.88
2022-11-22T09:12:31.156Z,87.36
2022-11-22T09:24:31.588Z,86.09
2022-11-22T09:36:32.050Z,86.20
2022-11-22T09:48:32.551Z,82.02
2022-11-22T10:00:32.957Z,82.59
2022-11-22T10:12:33.382Z,81.44
2022-11-22T10:24:33.853Z,79.65
2022-11-22T10:36:34.313Z,79.47
2022-11-22T10:48:34.756Z,82.31
2022-11-22T11:00:35.228Z,80.18
2022-11-22T11:12:35.683Z,83.40
2022-11-22T11:24:36.120Z,84.19
2022-11-22T11:36:36.533Z,83.22
2022-11-22T11:48:37.022Z,84.28
2022-11-22T12:00:37.471Z,84.96
2022-11-22T12:12:37.946Z,84.30
2022-11-22T12:24:52.586Z,84.02
2022-11-22T12:36:38.849Z,85.65
2022-11-22T12:48:39.270Z,84.51
2022-11-22T13:00:39.779Z,85.56
2022-11-22T13:12:40.187Z,84.87
2022-11-22T13:24:40.622Z,84.98
2022-11-22T13:36:41.119Z,83.56
2022-11-22T13:48:41.578Z,84.73
2022-11-22T14:00:42.057Z,83.62
2022-11-22T14:12:42.488Z,85.04
2022-11-22T14:24:42.887Z,86.23
2022-11-22T14:36:43.336Z,86.66
2022-11-22T14:48:43.781Z,85.72
2022-11-22T15:00:44.253Z,86.09
2022-11-22T15:12:44.762Z,86.49
2022-11-22T16:00:46.567Z,87.73
2022-11-22T16:12:46.995Z,87.11
2022-11-22T16:24:47.443Z,86.69
2022-11-22T16:36:47.890Z,87.89
2022-11-22T16:48:48.337Z,87.79
2022-11-22T17:00:48.827Z,89.73
2022-11-22T17:12:49.228Z,90.78
2022-11-22T17:24:49.661Z,92.03
2022-11-22T17:36:50.118Z,92.27
2022-11-22T17:48:50.624Z,92.63
2022-11-22T18:00:51.091Z,93.48
2022-11-22T18:13:13.455Z,94.37
2022-11-22T18:24:51.990Z,93.96
2022-11-22T18:36:55.790Z,93.45
2022-11-22T18:48:52.849Z,93.87
2022-11-22T19:00:53.329Z,94.19
2022-11-22T19:12:53.730Z,94.06
2022-11-22T19:24:54.208Z,94.57
2022-11-22T19:36:54.648Z,95.12
2022-11-22T19:48:55.118Z,94.18
2022-11-22T20:00:55.571Z,94.59
2022-11-22T20:12:56.037Z,95.01
2022-11-22T20:24:56.429Z,94.56
2022-11-22T20:36:56.863Z,95.26
2022-11-22T20:48:59.111Z,95.43
2022-11-22T21:00:57.929Z,95.23
2022-11-22T21:12:58.253Z,94.89
2022-11-22T21:24:58.722Z,95.21
2022-11-22T21:36:59.176Z,95.12
2022-11-22T21:48:59.686Z,94.89
2022-11-22T22:01:00.165Z,95.39
2022-11-22T22:13:00.510Z,95.19
2022-11-22T22:25:00.993Z,95.11
2022-11-22T22:37:01.483Z,95.20
2022-11-22T22:49:01.923Z,94.89
2022-11-22T23:01:02.339Z,94.68
2022-11-22T23:13:02.830Z,95.16
2022-11-22T23:25:03.263Z,95.77
2022-11-22T23:37:03.738Z,95.56
2022-11-22T23:49:04.188Z,95.37
